tititudorancea.com
Station Historical Data
Daily Summary for January 1, 2018 Units:  Metric    English   Both
« Previous Day
Next Day »
Daily Weekly Monthly Yearly Custom
  High: Low: Average:
Temperature: -17.8 °C 10.4 °C 17.7 °C
Dew Point: -17.8 °C 8.9 °C 10.6 °C
Humidity: Humidity % 34 % 67 %
Wind Speed: 0 km/h 0 km/h 7.7 km/h
Wind Gust: 0 km/h - -
Wind:- - SSW
Pressure: 0 hPa 1003.9 hPa -
Precipitation: 0 mm    
Historical Graphs
 
 
Ararat weather Find more about Weather in Ararat, AU


 



 


Tabular Data for January 1, 2018
Time Temperature Dew Point Pressure Wind Wind Speed Wind Gust Humidity Rainfall Rate (Hourly)
-17.8 °C -17.8 °C 0 hPa Calm     Humidity % 0 mm
00:02 14.2 °C 11.4 °C 1008 hPa South 3.2 km/h 5.6 km/h 83 % 0 mm
00:03 14.2 °C 11.4 °C 1008 hPa South 2.7 km/h 5.6 km/h 83 % 0 mm
00:08 14 °C 11.2 °C 1008 hPa South 5 km/h 5.6 km/h 83 % 0 mm
00:09 13.9 °C 11.1 °C 1008 hPa South 5.6 km/h 5.6 km/h 83 % 0 mm
00:14 13.8 °C 11.1 °C 1008 hPa South 1.6 km/h 5.6 km/h 84 % 0 mm
00:15 13.8 °C 11.1 °C 1008 hPa South 1.8 km/h 5.6 km/h 84 % 0 mm
00:18 13.7 °C 11.2 °C 1008 hPa South 2.3 km/h 5.6 km/h 85 % 0 mm
00:21 13.6 °C 11.1 °C 1008 hPa South 4.8 km/h 9.3 km/h 85 % 0 mm
00:26 13.5 °C 11 °C 1008 hPa South 2.3 km/h 7.4 km/h 85 % 0 mm
00:28 13.5 °C 11 °C 1008 hPa North 3.4 km/h 6.4 km/h 85 % 0 mm
00:33 13.4 °C 11.1 °C 1007.7 hPa North 2.3 km/h 3.2 km/h 86 % 0 mm
00:34 13.3 °C 11.1 °C 1007.7 hPa South 2.3 km/h 5.6 km/h 86 % 0 mm
00:35 13.3 °C 11.1 °C 1007.7 hPa South 2.7 km/h 5.6 km/h 86 % 0 mm
00:39 13.3 °C 11.2 °C 1007.7 hPa South 2.9 km/h 5.6 km/h 87 % 0 mm
00:44 13.2 °C 11.1 °C 1007.7 hPa South 3.9 km/h 7.4 km/h 87 % 0 mm
00:49 13.1 °C 11.2 °C 1007.7 hPa South 0.2 km/h 1.9 km/h 88 % 0 mm
00:51 13.1 °C 11.2 °C 1007.7 hPa Calm     88 % 0 mm
00:53 13.1 °C 10.9 °C 1007.7 hPa Calm     87 % 0 mm
00:56 12.9 °C 10.8 °C 1007.7 hPa North 3.4 km/h 5.6 km/h 87 % 0 mm
01:01 12.9 °C 10.9 °C 1007.7 hPa Calm   1.9 km/h 88 % 0 mm
01:02 12.8 °C 10.9 °C 1007.7 hPa Calm     88 % 0 mm
01:07 12.8 °C 10.8 °C 1007.7 hPa North 2.4 km/h 3.7 km/h 88 % 0 mm
01:09 12.8 °C 10.8 °C 1007.7 hPa South 2.3 km/h 3.7 km/h 88 % 0 mm
01:14 12.7 °C 10.9 °C 1007.7 hPa North 3.4 km/h 5.6 km/h 89 % 0 mm
01:15 12.7 °C 10.9 °C 1007.7 hPa South 3.2 km/h 5.6 km/h 89 % 0 mm
01:20 12.6 °C 10.8 °C 1007.7 hPa South 0.3 km/h 5.6 km/h 89 % 0 mm
01:21 12.6 °C 10.8 °C 1007.7 hPa South 0.5 km/h 3.2 km/h 89 % 0 mm
01:26 12.6 °C 10.8 °C 1007.7 hPa Calm     89 % 0 mm
01:29 12.5 °C 10.7 °C 1007.7 hPa Calm     89 % 0 mm
01:34 12.4 °C 10.6 °C 1007.7 hPa Calm     89 % 0 mm
01:39 12.3 °C 10.5 °C 1007.7 hPa South 3.7 km/h 5.6 km/h 89 % 0 mm
01:40 12.3 °C 10.5 °C 1007.7 hPa South 2.9 km/h 5.6 km/h 89 % 0 mm
01:45 12.2 °C 10.4 °C 1007.3 hPa South 1.6 km/h 3.7 km/h 89 % 0 mm
01:47 12.2 °C 10.4 °C 1007.3 hPa South 0.5 km/h 3.7 km/h 89 % 0 mm
01:49 12.1 °C 10.5 °C 1007.3 hPa South 1.6 km/h 3.7 km/h 90 % 0 mm
01:52 12.1 °C 10.4 °C 1007.3 hPa North 0.5 km/h 3.7 km/h 90 % 0 mm
01:57 12 °C 10.4 °C 1007.3 hPa South 3.4 km/h 5.6 km/h 90 % 0 mm
01:58 12 °C 10.4 °C 1007.3 hPa South 2.6 km/h 5.6 km/h 90 % 0 mm
02:03 11.9 °C 10.3 °C 1007.3 hPa South 3.2 km/h 5.6 km/h 90 % 0 mm
02:04 11.9 °C 10.3 °C 1007.3 hPa South 2.7 km/h 5.6 km/h 90 % 0 mm
02:05 11.9 °C 10.3 °C 1007.3 hPa South 2.3 km/h 5.6 km/h 90 % 0 mm
02:10 11.9 °C 10.3 °C 1007.3 hPa South 1.8 km/h 5.6 km/h 90 % 0 mm
02:12 11.9 °C 10.3 °C 1007.3 hPa South 3.7 km/h 5.6 km/h 90 % 0 mm
02:13 11.9 °C 10.4 °C 1007.3 hPa North 3.4 km/h 5.6 km/h 91 % 0 mm
02:18 11.9 °C 10.4 °C 1007.3 hPa South 2.1 km/h 3.7 km/h 91 % 0 mm
02:19 11.9 °C 10.4 °C 1007.3 hPa North 3.5 km/h 5.6 km/h 91 % 0 mm
02:24 11.9 °C 10.4 °C 1007.3 hPa North 1.4 km/h 4.8 km/h 91 % 0 mm
02:27 11.8 °C 10.3 °C 1007.3 hPa South 3.2 km/h 5.6 km/h 91 % 0 mm
02:30 11.8 °C 10.3 °C 1007.3 hPa South 2.1 km/h 5.6 km/h 91 % 0 mm
02:32 11.8 °C 10.3 °C 1007.3 hPa South 0.6 km/h 5.6 km/h 91 % 0 mm
02:35 11.7 °C 10.1 °C 1007.3 hPa South 1.6 km/h 3.7 km/h 90 % 0 mm
02:40 11.6 °C 10.2 °C 1007 hPa South 1.1 km/h 5.6 km/h 91 % 0 mm
02:45 11.5 °C 9.9 °C 1007 hPa North 3.2 km/h 5.6 km/h 90 % 0 mm
02:50 11.4 °C 9.9 °C 1007 hPa Calm   3.7 km/h 91 % 0 mm
02:53 11.3 °C 9.9 °C 1007 hPa Calm   1.9 km/h 91 % 0 mm
02:55 11.3 °C 9.9 °C 1007 hPa Calm     91 % 0 mm
02:58 11.3 °C 9.9 °C 1007 hPa Calm     91 % 0 mm
03:03 11.2 °C 9.8 °C 1007 hPa Calm     91 % 0 mm
03:04 11.2 °C 9.8 °C 1007 hPa Calm     91 % 0 mm
03:07 11.1 °C 9.6 °C 1007 hPa Calm     90 % 0 mm
03:09 11.1 °C 9.7 °C 1007 hPa North 0.3 km/h 1.9 km/h 91 % 0 mm
03:12 11 °C 9.6 °C 1007 hPa South 2.4 km/h 3.7 km/h 91 % 0 mm
03:14 11 °C 9.6 °C 1007 hPa South 3.1 km/h 5.6 km/h 91 % 0 mm
03:19 10.9 °C 9.6 °C 1006.7 hPa South 1.1 km/h 3.7 km/h 91 % 0 mm
03:20 10.9 °C 9.6 °C 1006.7 hPa Calm   3.7 km/h 91 % 0 mm
03:25 10.9 °C 9.7 °C 1006.7 hPa South 0.5 km/h 3.7 km/h 92 % 0 mm
03:27 10.9 °C 9.7 °C 1006.7 hPa South 1 km/h 3.7 km/h 92 % 0 mm
03:31 10.9 °C 9.7 °C 1006.7 hPa South 2.1 km/h 3.7 km/h 92 % 0 mm
03:36 10.9 °C 9.7 °C 1006.7 hPa South 2.1 km/h 5.6 km/h 92 % 0 mm
03:37 10.9 °C 9.7 °C 1006.7 hPa North 2.4 km/h 3.7 km/h 92 % 0 mm
03:43 10.8 °C 9.6 °C 1006.7 hPa Calm     92 % 0 mm
03:44 10.8 °C 9.6 °C 1006.7 hPa North 1.3 km/h 3.2 km/h 92 % 0 mm
03:49 10.8 °C 9.6 °C 1006.7 hPa North 0.2 km/h 1.6 km/h 92 % 0 mm
03:50 10.8 °C 9.6 °C 1006.7 hPa South 0.3 km/h   92 % 0 mm
03:55 10.7 °C 9.5 °C 1006.3 hPa South 1.3 km/h 3.7 km/h 92 % 0 mm
03:57 10.7 °C 9.5 °C 1006.3 hPa Calm     92 % 0 mm
04:02 10.7 °C 9.4 °C 1006.3 hPa Calm     92 % 0 mm
04:03 10.6 °C 9.4 °C 1006.3 hPa Calm     92 % 0 mm
04:08 10.5 °C 9.1 °C 1006.3 hPa Calm     91 % 0 mm
04:09 10.4 °C 9.2 °C 1006.7 hPa Calm     92 % 0 mm
04:14 10.5 °C 9.3 °C 1006.3 hPa Calm     92 % 0 mm
04:19 10.6 °C 9.4 °C 1006.3 hPa Calm     93 % 0 mm
04:20 10.6 °C 9.5 °C 1006.3 hPa Calm     93 % 0 mm
04:25 10.6 °C 9.5 °C 1006.3 hPa South 0.2 km/h   93 % 0 mm
04:26 10.6 °C 9.5 °C 1006.3 hPa Calm   1.9 km/h 93 % 0 mm
04:27 10.6 °C 9.5 °C 1006.3 hPa Calm     93 % 0 mm
04:32 10.7 °C 9.6 °C 1006.3 hPa South 1.1 km/h 5.6 km/h 93 % 0 mm
04:35 10.9 °C 9.8 °C 1006.3 hPa South 0.5 km/h 3.7 km/h 93 % 0 mm
04:37 11 °C 9.9 °C 1006.3 hPa North 1.8 km/h 5.6 km/h 93 % 0 mm
04:42 11.2 °C 10.1 °C 1006.3 hPa North 1.6 km/h 5.6 km/h 93 % 0 mm
04:43 11.3 °C 10.2 °C 1006.3 hPa North 3.4 km/h 5.6 km/h 93 % 0 mm
04:44 11.3 °C 10.2 °C 1006.3 hPa North 0.3 km/h 5.6 km/h 93 % 0 mm
04:49 11.6 °C 10.4 °C 1006.3 hPa North 4.2 km/h 5.6 km/h 93 % 0 mm
04:51 11.7 °C 10.6 °C 1006.3 hPa South 1.8 km/h 5.6 km/h 93 % 0 mm
04:54 11.8 °C 10.7 °C 1006.3 hPa North 4.8 km/h 7.4 km/h 93 % 0 mm
04:58 11.9 °C 10.8 °C 1006.3 hPa South 5.8 km/h 9.3 km/h 93 % 0 mm
05:02 12 °C 10.9 °C 1006.3 hPa South 6.3 km/h 9.3 km/h 93 % 0 mm
05:07 12.2 °C 11.1 °C 1006.3 hPa North 5.5 km/h 8 km/h 93 % 0 mm
05:09 12.3 °C 11.2 °C 1006.3 hPa South 1 km/h 5.6 km/h 93 % 0 mm
05:13 12.3 °C 11.2 °C 1006.3 hPa South 2.3 km/h 9.7 km/h 93 % 0 mm
05:18 12.4 °C 11.3 °C 1006.3 hPa South 1.4 km/h 5.6 km/h 93 % 0 mm
05:20 12.4 °C 11.1 °C 1006.3 hPa North 6.1 km/h 9.3 km/h 92 % 0 mm
05:23 12.4 °C 11.2 °C 1006.3 hPa South 5.1 km/h 11.1 km/h 92 % 0 mm
05:27 12.4 °C 11.2 °C 1006.3 hPa South 4.3 km/h 9.3 km/h 92 % 0 mm
05:29 12.5 °C 11.2 °C 1006.3 hPa North 2.6 km/h 5.6 km/h 92 % 0 mm
05:31 12.5 °C 11.2 °C 1006.3 hPa South 5 km/h 9.3 km/h 92 % 0 mm
05:36 12.5 °C 11.2 °C 1006.3 hPa South 3.2 km/h 6.4 km/h 92 % 0 mm
05:41 12.6 °C 11.3 °C 1006.7 hPa North 1.8 km/h 5.6 km/h 92 % 0 mm
05:42 12.6 °C 11.3 °C 1006.7 hPa North 2.6 km/h 5.6 km/h 92 % 0 mm
05:44 12.6 °C 11.3 °C 1006.7 hPa North 4 km/h 6.4 km/h 92 % 0 mm
05:47 12.6 °C 11.3 °C 1006.7 hPa South 4.5 km/h 7.4 km/h 92 % 0 mm
05:51 12.6 °C 11.3 °C 1006.7 hPa South 5.6 km/h 11.1 km/h 92 % 0 mm
05:53 12.6 °C 11.3 °C 1006.7 hPa South 5 km/h 9.3 km/h 92 % 0 mm
05:58 12.7 °C 11.4 °C 1006.7 hPa South 3.5 km/h 9.3 km/h 92 % 0 mm
05:59 12.7 °C 11.4 °C 1006.7 hPa South 4.8 km/h 9.3 km/h 92 % 0 mm
06:04 12.7 °C 11.4 °C 1006.7 hPa North 7.6 km/h 11.1 km/h 92 % 0 mm
06:09 12.6 °C 11.2 °C 1006.7 hPa North 3.5 km/h 7.4 km/h 91 % 0 mm
06:14 12.6 °C 11.1 °C 1006.7 hPa North 4.8 km/h 8 km/h 91 % 0 mm
06:16 12.6 °C 11.1 °C 1006.7 hPa North 5 km/h 5.6 km/h 91 % 0 mm
06:21 12.6 °C 10.9 °C 1006.7 hPa South 0.3 km/h 5.6 km/h 90 % 0 mm
06:24 12.6 °C 10.9 °C 1006.7 hPa Calm   1.9 km/h 90 % 0 mm
06:27 12.5 °C 10.9 °C 1006.7 hPa South 1.3 km/h 3.7 km/h 90 % 0 mm
06:31 12.6 °C 10.9 °C 1006.7 hPa South 2.1 km/h 7.4 km/h 90 % 0 mm
06:35 12.6 °C 10.9 °C 1006.7 hPa South 2.1 km/h 5.6 km/h 90 % 0 mm
06:36 12.6 °C 10.9 °C 1006.7 hPa North 3.2 km/h 5.6 km/h 90 % 0 mm
06:38 12.6 °C 10.9 °C 1006.7 hPa South 3.1 km/h 5.6 km/h 90 % 0 mm
06:42 12.5 °C 10.7 °C 1006.7 hPa South 2.1 km/h 6.4 km/h 89 % 0 mm
06:47 12.5 °C 10.7 °C 1006.7 hPa Calm   1.9 km/h 89 % 0 mm
06:49 12.5 °C 10.7 °C 1006.7 hPa North 2.6 km/h 5.6 km/h 89 % 0 mm
06:54 12.5 °C 10.7 °C 1006.7 hPa South 3.9 km/h 7.4 km/h 89 % 0 mm
06:59 12.5 °C 10.7 °C 1007 hPa South 5 km/h 5.6 km/h 89 % 0 mm
07:02 12.5 °C 10.7 °C 1007 hPa South 5 km/h 7.4 km/h 89 % 0 mm
07:05 12.5 °C 10.6 °C 1007 hPa South 5.1 km/h 9.7 km/h 88 % 0 mm
07:07 12.5 °C 10.6 °C 1007 hPa South 5.6 km/h 7.4 km/h 88 % 0 mm
07:10 12.5 °C 10.6 °C 1007 hPa South 5.1 km/h 9.3 km/h 88 % 0 mm
07:15 12.6 °C 10.4 °C 1007 hPa South 4.7 km/h 8 km/h 87 % 0 mm
07:18 12.6 °C 10.5 °C 1007 hPa South 3.9 km/h 7.4 km/h 87 % 0 mm
07:21 12.7 °C 10.6 °C 1007 hPa South 0.3 km/h 3.7 km/h 87 % 0 mm
07:26 13.1 °C 11.3 °C 1007 hPa South 0.2 km/h 3.2 km/h 89 % 0 mm
07:31 13.4 °C 11.3 °C 1007 hPa South 3.2 km/h 9.3 km/h 87 % 0 mm
07:36 13.7 °C 11.2 °C 1007 hPa South 7.1 km/h 9.3 km/h 85 % 0 mm
07:37 13.7 °C 11.2 °C 1007 hPa South 4.2 km/h 7.4 km/h 85 % 0 mm
07:42 13.9 °C 11.1 °C 1007 hPa South 11.6 km/h 18.5 km/h 83 % 0 mm
07:44 13.9 °C 11.1 °C 1007 hPa North 8.7 km/h 13 km/h 83 % 0 mm
07:49 14 °C 10.8 °C 1007.3 hPa South 6.6 km/h 9.3 km/h 81 % 0 mm
07:51 14.1 °C 11.1 °C 1007 hPa South 4.8 km/h 7.4 km/h 82 % 0 mm
07:56 14.2 °C 10.9 °C 1007.3 hPa South 9.8 km/h 13 km/h 81 % 0 mm
07:58 14.2 °C 10.8 °C 1007.3 hPa SSW 9.3 km/h 14.8 km/h 80 % 0 mm
08:02 14.4 °C 10.8 °C 1007.3 hPa SSW 7.2 km/h 13 km/h 79 % 0 mm
08:07 14.8 °C 11 °C 1007.3 hPa SSW 8.7 km/h 14.8 km/h 78 % 0 mm
08:08 14.8 °C 11.1 °C 1007.3 hPa South 6.8 km/h 11.1 km/h 78 % 0 mm
08:11 14.9 °C 10.9 °C 1007.3 hPa South 6.8 km/h 11.3 km/h 77 % 0 mm
08:15 15 °C 10.8 °C 1007.3 hPa South 10.8 km/h 14.8 km/h 76 % 0 mm
08:20 14.9 °C 10.9 °C 1007.3 hPa SSW 11.3 km/h 13 km/h 77 % 0 mm
08:21 14.9 °C 10.9 °C 1007.3 hPa SW 14.2 km/h 14.5 km/h 77 % 0 mm
08:26 15.1 °C 10.8 °C 1007.3 hPa SSW 12.7 km/h 18.5 km/h 76 % 0 mm
08:28 15.1 °C 10.9 °C 1007.3 hPa SSW 8.7 km/h 14.8 km/h 76 % 0 mm
08:32 15.1 °C 10.7 °C 1007.3 hPa SSW 12.2 km/h 19.3 km/h 75 % 0 mm
08:34 15.1 °C 10.7 °C 1007.3 hPa South 11.9 km/h 22.2 km/h 75 % 0 mm
08:39 15.3 °C 11.1 °C 1007.7 hPa South 13 km/h 16.7 km/h 76 % 0 mm
08:42 15.4 °C 11 °C 1007.7 hPa SSE 9.8 km/h 14.8 km/h 75 % 0 mm
08:47 15.7 °C 11.1 °C 1007.3 hPa SSE 10.8 km/h 13 km/h 74 % 0 mm
08:48 15.8 °C 11.2 °C 1007.7 hPa South 12.2 km/h 18.5 km/h 74 % 0 mm
08:53 15.9 °C 10.8 °C 1007.7 hPa SSW 11.9 km/h 18.5 km/h 72 % 0 mm
08:57 15.9 °C 10.9 °C 1007.7 hPa South 14.3 km/h 18.5 km/h 72 % 0 mm
08:58 15.9 °C 10.8 °C 1007.7 hPa SSW 15.6 km/h 24.1 km/h 72 % 0 mm
09:03 15.8 °C 10.9 °C 1007.7 hPa SW 8.2 km/h 18.5 km/h 73 % 0 mm
09:04 15.8 °C 10.9 °C 1007.7 hPa SW 8.9 km/h 14.8 km/h 73 % 0 mm
09:09 15.9 °C 11.1 °C 1007.7 hPa SSW 8.2 km/h 13 km/h 73 % 0 mm
09:10 15.9 °C 10.8 °C 1007.7 hPa SSW 7.4 km/h 13 km/h 72 % 0 mm
09:13 16.1 °C 10.8 °C 1008 hPa North 13.5 km/h 18.5 km/h 71 % 0 mm
09:16 16.1 °C 10.8 °C 1008 hPa SW 6.8 km/h 18.5 km/h 71 % 0 mm
09:19 16.1 °C 10.8 °C 1007.7 hPa SW 7.4 km/h 11.1 km/h 71 % 0 mm
09:22 16.2 °C 11.1 °C 1007.7 hPa SW 3.7 km/h 13 km/h 72 % 0 mm
09:27 16.7 °C 11.2 °C 1008 hPa SSW 8.4 km/h 11.3 km/h 70 % 0 mm
09:28 16.7 °C 11.2 °C 1008 hPa SSW 8.5 km/h 11.1 km/h 70 % 0 mm
09:32 16.8 °C 10.8 °C 1008 hPa SSW 15.9 km/h 20.4 km/h 68 % 0 mm
09:34 16.7 °C 10.8 °C 1008 hPa SSW 13.7 km/h 16.7 km/h 68 % 0 mm
09:39 16.7 °C 10.7 °C 1007.7 hPa SSW 10.8 km/h 14.8 km/h 68 % 0 mm
09:40 16.7 °C 10.7 °C 1007.7 hPa SW 9.5 km/h 13 km/h 68 % 0 mm
09:45 16.9 °C 11 °C 1007.7 hPa SSW 5.6 km/h 8 km/h 68 % 0 mm
09:46 17 °C 11.3 °C 1007.7 hPa South 8.4 km/h 14.8 km/h 69 % 0 mm
09:51 17.2 °C 10.8 °C 1007.7 hPa SSW 11.7 km/h 20.4 km/h 66 % 0 mm
09:52 17.2 °C 10.8 °C 1008 hPa SSW 9 km/h 14.5 km/h 66 % 0 mm
09:53 17.1 °C 10.7 °C 1007.7 hPa North 13.4 km/h 18.5 km/h 66 % 0 mm
09:57 17.3 °C 11.2 °C 1008 hPa South 9.2 km/h 17.7 km/h 67 % 0 mm
10:02 17.4 °C 11 °C 1007.7 hPa SSW 9.2 km/h 16.7 km/h 66 % 0 mm
10:04 17.5 °C 11.3 °C 1007.7 hPa SSW 7.1 km/h 11.1 km/h 67 % 0 mm
10:08 17.8 °C 11.2 °C 1007.7 hPa SSE 9.8 km/h 16.7 km/h 65 % 0 mm
10:10 17.9 °C 11.2 °C 1007.7 hPa South 13.4 km/h 18.5 km/h 65 % 0 mm
10:15 17.9 °C 11 °C 1007.7 hPa SSW 13.2 km/h 16.7 km/h 64 % 0 mm
10:17 17.9 °C 11.3 °C 1007.7 hPa SSW 7.2 km/h 11.1 km/h 65 % 0 mm
10:21 18.1 °C 10.9 °C 1007.7 hPa WSW 13.4 km/h 24.1 km/h 63 % 0 mm
10:26 18.2 °C 10.8 °C 1007.7 hPa WSW 6.6 km/h 9.3 km/h 62 % 0 mm
10:28 18.1 °C 10.9 °C 1007.7 hPa WSW 12.1 km/h 12.1 km/h 63 % 0 mm
10:33 18.3 °C 10.6 °C 1007.7 hPa SSW 16.4 km/h 22.2 km/h 61 % 0 mm
10:35 18.3 °C 10.6 °C 1007.7 hPa SSW 9.3 km/h 16.7 km/h 61 % 0 mm
10:40 18.3 °C 10.6 °C 1007.7 hPa North 8 km/h 13 km/h 61 % 0 mm
10:45 18.6 °C 10.9 °C 1007.7 hPa North 5.5 km/h 11.1 km/h 61 % 0 mm
10:46 18.6 °C 10.9 °C 1007.7 hPa North 5 km/h 11.3 km/h 61 % 0 mm
10:49 18.8 °C 10.7 °C 1007.7 hPa SSE 7.2 km/h 16.7 km/h 59 % 0 mm
10:51 18.8 °C 10.7 °C 1007.7 hPa SSE 7.2 km/h 11.1 km/h 59 % 0 mm
10:56 18.8 °C 10.6 °C 1007.7 hPa SSW 6.1 km/h 13 km/h 59 % 0 mm
11:01 19.2 °C 10.7 °C 1007.7 hPa SSW 11.6 km/h 17.7 km/h 58 % 0 mm
11:04 19.2 °C 10.5 °C 1007.7 hPa SW 8.7 km/h 11.1 km/h 57 % 0 mm
11:09 19.4 °C 10.4 °C 1007.3 hPa SW 5.1 km/h 7.4 km/h 56 % 0 mm
11:14 19.6 °C 10.6 °C 1007.3 hPa South 4.7 km/h 6.4 km/h 56 % 0 mm
11:16 19.7 °C 10.4 °C 1007.3 hPa South 4.5 km/h 5.6 km/h 55 % 0 mm
11:18 19.7 °C 10.7 °C 1007.7 hPa SSW 8.2 km/h 13 km/h 56 % 0 mm
11:23 19.8 °C 11 °C 1007.3 hPa SSW 4.8 km/h 7.4 km/h 57 % 0 mm
11:28 20.3 °C 10.7 °C 1007.3 hPa North 7.1 km/h 11.1 km/h 54 % 0 mm
11:31 20.2 °C 10.6 °C 1007.3 hPa SW 4.8 km/h 9.3 km/h 54 % 0 mm
11:36 20.2 °C 10.3 °C 1007.3 hPa SW 1.6 km/h 3.7 km/h 53 % 0 mm
11:41 20.3 °C 10.2 °C 1007.3 hPa North 10 km/h 12.9 km/h 52 % 0 mm
11:44 20.4 °C 10.5 °C 1007.3 hPa WSW 7.9 km/h 16.7 km/h 53 % 0 mm
11:49 20.7 °C 10.7 °C 1007.3 hPa SSW 9.5 km/h 18.5 km/h 53 % 0 mm
11:54 21 °C 10.8 °C 1007.3 hPa SW 8.9 km/h 16.7 km/h 52 % 0 mm
11:59 21.2 °C 10.3 °C 1007.3 hPa SSW 6.6 km/h 11.1 km/h 50 % 0 mm
12:03 21.4 °C 10.6 °C 1007.3 hPa SSW 2.6 km/h 8 km/h 50 % 0 mm
12:08 21.4 °C 10.6 °C 1007 hPa SSW 3.5 km/h 5.6 km/h 50 % 0 mm
12:09 21.5 °C 10.3 °C 1007 hPa North 4.8 km/h 9.7 km/h 49 % 0 mm
12:14 21.8 °C 10.6 °C 1007 hPa West 8.7 km/h 11.3 km/h 49 % 0 mm
12:15 21.8 °C 10.6 °C 1007 hPa North 9.5 km/h 11.3 km/h 49 % 0 mm
12:20 21.8 °C 10.6 °C 1007 hPa West 4 km/h 9.3 km/h 49 % 0 mm
12:25 21.9 °C 10.4 °C 1007 hPa SSW 9.5 km/h 13 km/h 48 % 0 mm
12:26 21.9 °C 10.1 °C 1007 hPa SSW 6.6 km/h 9.3 km/h 47 % 0 mm
12:30 21.8 °C 10.3 °C 1007 hPa South 5.6 km/h 9.7 km/h 48 % 0 mm
12:34 21.8 °C 10.3 °C 1007 hPa South 8 km/h 11.1 km/h 48 % 0 mm
12:38 22.1 °C 10.3 °C 1007 hPa SSE 4.7 km/h 13 km/h 47 % 0 mm
12:39 22.3 °C 10.4 °C 1007 hPa SSE 9.3 km/h 12.9 km/h 47 % 0 mm
12:44 22.7 °C 10.2 °C 1007 hPa SSW 14 km/h 18.5 km/h 45 % 0 mm
12:49 22.5 °C 10.6 °C 1006.7 hPa West 7.1 km/h 7.4 km/h 47 % 0 mm
12:50 22.5 °C 9.9 °C 1006.7 hPa West 6.9 km/h 9.3 km/h 45 % 0 mm
12:55 22.5 °C 9.9 °C 1006.7 hPa SW 9 km/h 16.7 km/h 45 % 0 mm
12:56 22.4 °C 10.2 °C 1006.7 hPa SW 6.8 km/h 11.1 km/h 46 % 0 mm
12:59 22.4 °C 10.2 °C 1006.7 hPa SSW 6.8 km/h 9.3 km/h 46 % 0 mm
13:02 22.5 °C 10.6 °C 1006.7 hPa SE 8.2 km/h 14.8 km/h 47 % 0 mm
13:05 22.8 °C 10.3 °C 1006.7 hPa SE 3.2 km/h 5.6 km/h 45 % 0 mm
13:07 23 °C 10.4 °C 1006.7 hPa SW 10.6 km/h 14.8 km/h 45 % 0 mm
13:09 23 °C 10.1 °C 1006.7 hPa SSW 12.2 km/h 16.7 km/h 44 % 0 mm
13:12 23 °C 10.1 °C 1006.7 hPa SSW 5.6 km/h 9.3 km/h 44 % 0 mm
13:14 23 °C 10.1 °C 1006.7 hPa North 6.1 km/h 14.8 km/h 44 % 0 mm
13:19 22.8 °C 9.9 °C 1006.3 hPa SW 2.4 km/h 6.4 km/h 44 % 0 mm
13:20 22.9 °C 10 °C 1006.3 hPa SSW 10.3 km/h 12.9 km/h 44 % 0 mm
13:25 23 °C 10.1 °C 1006.3 hPa South 5.8 km/h 9.3 km/h 44 % 0 mm
13:26 23.1 °C 10.1 °C 1006.3 hPa SW 6.1 km/h 9.7 km/h 44 % 0 mm
13:27 23.1 °C 9.8 °C 1006.3 hPa North 8.4 km/h 13 km/h 43 % 0 mm
13:32 23.2 °C 9.9 °C 1006.3 hPa WSW 6.9 km/h 13 km/h 43 % 0 mm
13:33 23.2 °C 9.6 °C 1006.3 hPa WSW 4 km/h 13 km/h 42 % 0 mm
13:35 23.3 °C 10 °C 1006.3 hPa WSW 0.5 km/h 1.9 km/h 43 % 0 mm
13:39 23.6 °C 10.3 °C 1006.3 hPa West 4.8 km/h 11.3 km/h 43 % 0 mm
13:44 23.9 °C 10.2 °C 1006.3 hPa SSW 12.7 km/h 18.5 km/h 42 % 0 mm
13:45 23.9 °C 9.9 °C 1006.3 hPa SSE 7.6 km/h 14.8 km/h 41 % 0 mm
13:46 23.9 °C 9.8 °C 1006.3 hPa SSE 8 km/h 13 km/h 41 % 0 mm
13:51 24 °C 10.3 °C 1006 hPa South 6.4 km/h 11.1 km/h 42 % 0 mm
13:52 24 °C 9.9 °C 1006 hPa SSE 1.9 km/h 5.6 km/h 41 % 0 mm
13:56 24.1 °C 10.1 °C 1006 hPa SSE 8.9 km/h 11.1 km/h 41 % 0 mm
13:58 24.3 °C 10.2 °C 1006 hPa SSE 8.5 km/h 11.1 km/h 41 % 0 mm
14:03 24.4 °C 9.9 °C 1005.6 hPa North 7.4 km/h 16.7 km/h 40 % 0 mm
14:05 24.4 °C 10.3 °C 1005.6 hPa SSW 4.5 km/h 8 km/h 41 % 0 mm
14:10 24.3 °C 10.2 °C 1005.6 hPa SSW 14.3 km/h 18.5 km/h 41 % 0 mm
14:14 24.3 °C 10.2 °C 1005.6 hPa SSW 9.3 km/h 13 km/h 41 % 0 mm
14:15 24.4 °C 10.3 °C 1005.6 hPa South 8 km/h 13 km/h 41 % 0 mm
14:20 24.4 °C 9.9 °C 1005.6 hPa SW 9 km/h 13 km/h 40 % 0 mm
14:22 24.3 °C 9.5 °C 1005.6 hPa SSW 2.9 km/h 7.4 km/h 39 % 0 mm
14:27 24.5 °C 10.4 °C 1005.3 hPa SSW 1.4 km/h 5.6 km/h 41 % 0 mm
14:28 24.7 °C 10.2 °C 1005.3 hPa SSW 2.9 km/h 3.7 km/h 40 % 0 mm
14:33 25.4 °C 10.5 °C 1005.3 hPa SSW 3.9 km/h 5.6 km/h 39 % 0 mm
14:34 25.4 °C 10.1 °C 1005.3 hPa SSW 4.7 km/h 5.6 km/h 38 % 0 mm
14:35 25.5 °C 10.1 °C 1005.3 hPa SSW 3.5 km/h 5.6 km/h 38 % 0 mm
14:39 25.4 °C 10.1 °C 1005.3 hPa SSW 6.3 km/h 8 km/h 38 % 0 mm
14:42 25.2 °C 10.2 °C 1005.3 hPa SW 11.6 km/h 14.8 km/h 39 % 0 mm
14:47 24.9 °C 10 °C 1005.3 hPa SW 5.6 km/h 14.8 km/h 39 % 0 mm
14:48 24.9 °C 10 °C 1005.3 hPa SW 6.8 km/h 11.1 km/h 39 % 0 mm
14:53 24.8 °C 9.9 °C 1005.3 hPa WSW 9.3 km/h 18.5 km/h 39 % 0 mm
14:58 24.8 °C 9.9 °C 1005.3 hPa South 6.6 km/h 13 km/h 39 % 0 mm
15:03 25.1 °C 10.1 °C 1005.3 hPa SSE 5.1 km/h 13 km/h 39 % 0 mm
15:04 25.1 °C 10.2 °C 1005.3 hPa SSE 4.5 km/h 7.4 km/h 39 % 0 mm
15:05 25.3 °C 9.9 °C 1005.3 hPa SSE 6.3 km/h 11.3 km/h 38 % 0 mm
15:10 25.2 °C 10.3 °C 1005 hPa SSW 6.4 km/h 14.8 km/h 39 % 0 mm
15:15 25.3 °C 9.9 °C 1005 hPa SSW 1.3 km/h 5.6 km/h 38 % 0 mm
15:19 25.4 °C 10.1 °C 1005 hPa South 6.9 km/h 14.8 km/h 38 % 0 mm
15:20 25.4 °C 10.1 °C 1005 hPa South 6.6 km/h 11.1 km/h 38 % 0 mm
15:25 25.7 °C 10.3 °C 1005 hPa SSE 6.6 km/h 16.1 km/h 38 % 0 mm
15:26 25.7 °C 10.3 °C 1005 hPa SSE 10.6 km/h 16.7 km/h 38 % 0 mm
15:31 25.9 °C 10.1 °C 1005 hPa SE 8.9 km/h 18.5 km/h 37 % 0 mm
15:32 26.1 °C 10.2 °C 1005 hPa SE 4 km/h 12.9 km/h 37 % 0 mm
15:37 25.9 °C 10.1 °C 1005 hPa SW 5.5 km/h 8 km/h 37 % 0 mm
15:38 25.9 °C 10.1 °C 1004.6 hPa SW 6.4 km/h 9.3 km/h 37 % 0 mm
15:40 26 °C 10.2 °C 1004.6 hPa North 10.1 km/h 16.1 km/h 37 % 0 mm
15:45 26.2 °C 10.4 °C 1004.6 hPa SE 10.8 km/h 18.5 km/h 37 % 0 mm
15:46 26.3 °C 10.4 °C 1004.6 hPa SE 10 km/h 14.8 km/h 37 % 0 mm
15:48 26.4 °C 10.1 °C 1004.6 hPa SE 14.8 km/h 18.5 km/h 36 % 0 mm
15:53 26.4 °C 10.2 °C 1004.6 hPa South 11.4 km/h 14.8 km/h 36 % 0 mm
15:58 26.1 °C 9.9 °C 1004.6 hPa South 8.9 km/h 11.1 km/h 36 % 0 mm
16:03 26.1 °C 10.3 °C 1004.6 hPa SSW 10 km/h 14.8 km/h 37 % 0 mm
16:06 26.1 °C 9.8 °C 1004.6 hPa North 18.7 km/h 27.8 km/h 36 % 0 mm
16:11 26 °C 9.8 °C 1004.6 hPa South 5.3 km/h 11.1 km/h 36 % 0 mm
16:15 26.2 °C 9.9 °C 1004.6 hPa South 15.4 km/h 24.1 km/h 36 % 0 mm
16:16 26.3 °C 9.6 °C 1004.6 hPa South 9.2 km/h 18.5 km/h 35 % 0 mm
16:20 26.3 °C 10.1 °C 1004.6 hPa SSW 11.1 km/h 16.1 km/h 36 % 0 mm
16:23 26.2 °C 9.6 °C 1004.3 hPa SSW 3.2 km/h 11.3 km/h 35 % 0 mm
16:25 26.2 °C 9.6 °C 1004.3 hPa SSW 10 km/h 18.5 km/h 35 % 0 mm
16:30 26.6 °C 9.8 °C 1004.3 hPa SSE 8.5 km/h 11.1 km/h 35 % 0 mm
16:31 26.6 °C 9.8 °C 1004.3 hPa SSE 8.4 km/h 11.1 km/h 35 % 0 mm
16:36 26.9 °C 9.7 °C 1004.3 hPa SSW 13.8 km/h 18.5 km/h 34 % 0 mm
16:41 26.6 °C 9.9 °C 1004.3 hPa North 13.4 km/h 19.3 km/h 35 % 0 mm
16:46 26.2 °C 9.6 °C 1004.3 hPa South 14 km/h 25.9 km/h 35 % 0 mm
16:47 26.2 °C 9.5 °C 1004.3 hPa South 10.1 km/h 18.5 km/h 35 % 0 mm
16:52 26.2 °C 9.6 °C 1004.3 hPa SSW 13.7 km/h 18.5 km/h 35 % 0 mm
16:53 26.2 °C 9.5 °C 1004.3 hPa SSE 12.6 km/h 22.2 km/h 35 % 0 mm
16:57 26.2 °C 9.9 °C 1004.3 hPa South 11.7 km/h 14.8 km/h 36 % 0 mm
17:02 26.2 °C 9.6 °C 1004.3 hPa SSW 12.2 km/h 20.4 km/h 35 % 0 mm
17:07 25.9 °C 9.3 °C 1004.3 hPa South 14 km/h 22.2 km/h 35 % 0 mm
17:08 25.9 °C 9.3 °C 1004.3 hPa SSW 12.7 km/h 18.5 km/h 35 % 0 mm
17:10 25.9 °C 9.3 °C 1004.3 hPa SW 12.1 km/h 14.8 km/h 35 % 0 mm
17:15 25.9 °C 8.9 °C 1004.3 hPa SW 12.6 km/h 25.9 km/h 34 % 0 mm
17:17 25.8 °C 9.2 °C 1004.3 hPa South 13.4 km/h 22.2 km/h 35 % 0 mm
17:20 25.8 °C 9.2 °C 1004.3 hPa North 14.5 km/h 20.4 km/h 35 % 0 mm
17:22 25.8 °C 9.2 °C 1004.3 hPa SSW 10.8 km/h 16.7 km/h 35 % 0 mm
17:27 26.1 °C 9.9 °C 1004.3 hPa SSW 13.2 km/h 18.5 km/h 36 % 0 mm
17:29 26 °C 9.3 °C 1004.3 hPa SW 11.9 km/h 16.1 km/h 35 % 0 mm
17:34 25.7 °C 9.5 °C 1004.3 hPa South 7.2 km/h 13 km/h 36 % 0 mm
17:35 25.7 °C 9.1 °C 1004.3 hPa SSW 9.7 km/h 17.7 km/h 35 % 0 mm
17:36 25.7 °C 9.1 °C 1004.3 hPa South 15 km/h 18.5 km/h 35 % 0 mm
17:41 25.5 °C 9.7 °C 1004.3 hPa SSW 11.4 km/h 18.5 km/h 37 % 0 mm
17:45 25.7 °C 9.5 °C 1003.9 hPa SSW 12.9 km/h 18.5 km/h 36 % 0 mm
17:50 25.4 °C 9.3 °C 1004.3 hPa SSW 17.9 km/h 25.9 km/h 36 % 0 mm
17:52 25.3 °C 9.2 °C 1004.3 hPa SSE 10.8 km/h 18.5 km/h 36 % 0 mm
17:57 25.4 °C 9.6 °C 1003.9 hPa SSW 15.8 km/h 20.4 km/h 37 % 0 mm
18:02 25.4 °C 9.7 °C 1003.9 hPa SSW 15.1 km/h 20.4 km/h 37 % 0 mm
18:07 25.2 °C 9.9 °C 1003.9 hPa South 7.9 km/h 16.7 km/h 38 % 0 mm
18:09 25.3 °C 10.4 °C 1003.9 hPa SSW 13.7 km/h 18.5 km/h 39 % 0 mm
18:14 25.1 °C 9.8 °C 1003.9 hPa SSW 17.4 km/h 20.4 km/h 38 % 0 mm
18:15 25.1 °C 9.7 °C 1003.9 hPa South 16.1 km/h 22.2 km/h 38 % 0 mm
18:20 25 °C 10.1 °C 1003.9 hPa South 7.4 km/h 11.1 km/h 39 % 0 mm
18:21 25.1 °C 10.2 °C 1004.3 hPa SW 11.9 km/h 16.7 km/h 39 % 0 mm
18:22 25.1 °C 9.8 °C 1003.9 hPa WSW 13.2 km/h 18.5 km/h 38 % 0 mm
18:26 24.9 °C 10.1 °C 1003.9 hPa SW 14 km/h 27.8 km/h 39 % 0 mm
18:31 24.9 °C 10.1 °C 1003.9 hPa SSW 11.4 km/h 16.7 km/h 39 % 0 mm
18:32 25 °C 10.1 °C 1004.3 hPa SW 15.6 km/h 15.6 km/h 39 % 0 mm
18:37 24.8 °C 9.9 °C 1004.3 hPa SSW 14 km/h 18.5 km/h 39 % 0 mm
18:39 24.7 °C 10.2 °C 1004.3 hPa SW 13 km/h 14.8 km/h 40 % 0 mm
18:42 24.8 °C 10.3 °C 1004.3 hPa SSW 10 km/h 14.8 km/h 40 % 0 mm
18:47 24.7 °C 10.2 °C 1004.3 hPa SSW 17.7 km/h 24.1 km/h 40 % 0 mm
18:52 24.5 °C 10 °C 1004.3 hPa SSE 11.9 km/h 25.9 km/h 40 % 0 mm
18:54 24.4 °C 11.1 °C 1004.3 hPa North 16.1 km/h 20.9 km/h 43 % 0 mm
18:59 23.9 °C 11.6 °C 1004.6 hPa South 15.4 km/h 24.1 km/h 46 % 0 mm
19:01 23.9 °C 11.6 °C 1004.6 hPa SSE 10 km/h 29.6 km/h 46 % 0 mm
19:06 23.6 °C 11.6 °C 1004.6 hPa South 16.3 km/h 25.9 km/h 47 % 0 mm
19:07 23.4 °C 11.8 °C 1004.6 hPa South 10.6 km/h 27.8 km/h 48 % 0 mm
19:09 23.4 °C 11.8 °C 1004.6 hPa South 12.7 km/h 18.5 km/h 48 % 0 mm
19:14 23.2 °C 11.6 °C 1004.6 hPa SSW 15.9 km/h 25.9 km/h 48 % 0 mm
19:16 23 °C 11.4 °C 1004.6 hPa South 15.6 km/h 20.4 km/h 48 % 0 mm
19:21 22.8 °C 11.5 °C 1004.6 hPa South 14.2 km/h 18.5 km/h 49 % 0 mm
19:26 22.6 °C 11.3 °C 1005 hPa SSW 20.4 km/h 33.3 km/h 49 % 0 mm
19:27 22.6 °C 11.3 °C 1005 hPa SSW 18.7 km/h 31.5 km/h 49 % 0 mm
19:28 22.5 °C 11.2 °C 1005 hPa South 20 km/h 31.5 km/h 49 % 0 mm
19:32 22.3 °C 11.3 °C 1005 hPa SSW 16.1 km/h 24.1 km/h 50 % 0 mm
19:36 22.1 °C 11.4 °C 1005 hPa South 17.1 km/h 20.4 km/h 51 % 0 mm
19:40 22 °C 11.4 °C 1005 hPa SSE 13.2 km/h 18.5 km/h 51 % 0 mm
19:43 21.9 °C 11.3 °C 1005.3 hPa South 12.6 km/h 18.5 km/h 51 % 0 mm
19:48 21.5 °C 11.2 °C 1005.3 hPa SSE 19.8 km/h 29.6 km/h 52 % 0 mm
19:50 21.4 °C 11.4 °C 1005.3 hPa South 17.2 km/h 24.1 km/h 53 % 0 mm
19:55 20.9 °C 11.2 °C 1005.6 hPa South 23.8 km/h 35.2 km/h 54 % 0 mm
20:00 20.6 °C 11.5 °C 1005.6 hPa SSE 18.2 km/h 20.4 km/h 56 % 0 mm
20:02 20.4 °C 11.6 °C 1005.6 hPa SSE 13 km/h 27.8 km/h 57 % 0 mm
20:03 20.4 °C 11.6 °C 1005.6 hPa SE 10 km/h 13 km/h 57 % 0 mm
20:08 20.1 °C 11.6 °C 1005.6 hPa SSE 19.8 km/h 37 km/h 58 % 0 mm
20:10 20 °C 11.7 °C 1006 hPa SSW 11.6 km/h 20.4 km/h 59 % 0 mm
20:15 19.8 °C 11.8 °C 1006 hPa North 13 km/h 18.5 km/h 60 % 0 mm
20:16 19.7 °C 11.7 °C 1006 hPa SSW 11.7 km/h 22.5 km/h 60 % 0 mm
20:21 19.4 °C 11.9 °C 1006 hPa South 16.4 km/h 20.4 km/h 62 % 0 mm
20:22 19.3 °C 11.8 °C 1006 hPa SSW 18.5 km/h 22.2 km/h 62 % 0 mm
20:27 18.9 °C 12 °C 1006 hPa SSW 17.5 km/h 25.9 km/h 64 % 0 mm
20:28 18.9 °C 12 °C 1006 hPa SSW 16.9 km/h 25.9 km/h 64 % 0 mm
20:33 18.7 °C 11.9 °C 1006.3 hPa SSE 16.3 km/h 24.1 km/h 65 % 0 mm
20:38 18.3 °C 11.9 °C 1006.3 hPa South 14.2 km/h 18.5 km/h 66 % 0 mm
20:39 18.3 °C 11.9 °C 1006.3 hPa South 13.8 km/h 22.2 km/h 66 % 0 mm
20:44 18.2 °C 11.9 °C 1006.3 hPa SSE 10.1 km/h 20.9 km/h 67 % 0 mm
20:46 18.1 °C 12.1 °C 1006.3 hPa South 12.9 km/h 22.2 km/h 68 % 0 mm
20:51 17.8 °C 11.8 °C 1006.7 hPa South 11.7 km/h 17.7 km/h 68 % 0 mm
20:52 17.8 °C 12.1 °C 1006.7 hPa SSE 15.4 km/h 22.2 km/h 69 % 0 mm
20:57 17.6 °C 12.1 °C 1006.7 hPa South 11.3 km/h 25.9 km/h 70 % 0 mm
21:02 17.3 °C 11.9 °C 1006.7 hPa South 15 km/h 24.1 km/h 71 % 0 mm
21:03 17.2 °C 11.9 °C 1006.7 hPa South 11.4 km/h 18.5 km/h 71 % 0 mm
21:07 17.1 °C 11.9 °C 1006.7 hPa South 14.8 km/h 20.9 km/h 72 % 0 mm
21:08 17.1 °C 11.9 °C 1006.7 hPa SSE 14.6 km/h 20.4 km/h 72 % 0 mm
21:13 16.8 °C 11.9 °C 1007 hPa SSW 19 km/h 25.7 km/h 73 % 0 mm
21:16 16.7 °C 11.8 °C 1007 hPa SSW 16.3 km/h 25.9 km/h 73 % 0 mm
21:17 16.7 °C 12 °C 1007 hPa South 17.7 km/h 20.4 km/h 74 % 0 mm
21:22 16.5 °C 11.8 °C 1007 hPa South 16.6 km/h 24.1 km/h 74 % 0 mm
21:24 16.4 °C 12.2 °C 1007 hPa South 10.6 km/h 18.5 km/h 76 % 0 mm
21:27 16.3 °C 11.9 °C 1007.3 hPa South 16.4 km/h 18.5 km/h 75 % 0 mm
21:32 16.1 °C 11.8 °C 1007.3 hPa South 15.9 km/h 22.2 km/h 76 % 0 mm
21:34 15.9 °C 11.9 °C 1007.3 hPa South 10.3 km/h 18.5 km/h 77 % 0 mm
21:39 15.8 °C 11.9 °C 1007.3 hPa South 12.2 km/h 18.5 km/h 78 % 0 mm
21:44 15.7 °C 12.1 °C 1007.3 hPa South 12.1 km/h 18.5 km/h 79 % 0 mm
21:47 15.7 °C 12.1 °C 1007.3 hPa SSE 8.2 km/h 18.5 km/h 79 % 0 mm
21:53 15.7 °C 12.1 °C 1007.3 hPa SSE 10.3 km/h 25.9 km/h 79 % 0 mm
21:57 15.6 °C 11.9 °C 1007.7 hPa SSE 9.3 km/h 13 km/h 79 % 0 mm
21:58 15.5 °C 11.9 °C 1007.7 hPa SSE 8 km/h 14.8 km/h 79 % 0 mm
22:03 15.4 °C 11.9 °C 1007.7 hPa South 11.7 km/h 14.8 km/h 80 % 0 mm
22:06 15.3 °C 11.8 °C 1007.7 hPa South 15.9 km/h 18.5 km/h 80 % 0 mm
22:11 15.2 °C 11.7 °C 1007.7 hPa SSE 8.7 km/h 20.4 km/h 80 % 0 mm
22:12 15.1 °C 11.7 °C 1007.7 hPa South 12.7 km/h 14.8 km/h 80 % 0 mm
22:13 15.1 °C 11.7 °C 1007.7 hPa SSE 13.7 km/h 24.1 km/h 80 % 0 mm
22:18 15 °C 11.8 °C 1007.7 hPa South 12.1 km/h 14.8 km/h 81 % 0 mm
22:20 14.9 °C 11.7 °C 1007.7 hPa North 10.1 km/h 14.8 km/h 81 % 0 mm
22:25 14.9 °C 11.7 °C 1008 hPa SSE 12.2 km/h 16.7 km/h 81 % 0 mm
22:28 14.9 °C 11.7 °C 1008 hPa South 7.7 km/h 14.5 km/h 81 % 0 mm
22:31 14.9 °C 11.7 °C 1008 hPa South 8 km/h 16.7 km/h 81 % 0 mm
22:34 14.9 °C 11.7 °C 1008 hPa South 7.7 km/h 14.8 km/h 81 % 0 mm
22:39 14.9 °C 11.7 °C 1008 hPa South 7.9 km/h 11.1 km/h 81 % 0 mm
22:43 14.8 °C 11.6 °C 1008 hPa SSE 12.4 km/h 18.5 km/h 81 % 0 mm
22:48 14.7 °C 11.7 °C 1008 hPa South 9.5 km/h 13 km/h 82 % 0 mm
22:53 14.6 °C 11.5 °C 1008 hPa South 6.6 km/h 11.1 km/h 82 % 0 mm
22:54 14.6 °C 11.5 °C 1008 hPa South 7.1 km/h 11.1 km/h 82 % 0 mm
22:58 14.4 °C 11.3 °C 1008 hPa South 9.8 km/h 18.5 km/h 82 % 0 mm
23:04 14.3 °C 11.2 °C 1008 hPa South 10.3 km/h 17.7 km/h 82 % 0 mm
23:06 14.3 °C 11.2 °C 1008 hPa South 9 km/h 14.8 km/h 82 % 0 mm
23:07 14.3 °C 11.2 °C 1008 hPa South 11.3 km/h 16.7 km/h 82 % 0 mm
23:11 14.3 °C 11.4 °C 1008 hPa SSE 11.1 km/h 18.5 km/h 83 % 0 mm
23:12 14.2 °C 11.4 °C 1008 hPa South 12.1 km/h 16.7 km/h 83 % 0 mm
23:17 14.2 °C 11.4 °C 1008 hPa North 10 km/h 20.4 km/h 83 % 0 mm
23:18 14.2 °C 11.4 °C 1008 hPa South 10.5 km/h 14.8 km/h 83 % 0 mm
23:23 14.3 °C 11.4 °C 1008 hPa South 10.3 km/h 11.1 km/h 83 % 0 mm
23:24 14.2 °C 11.4 °C 1008 hPa South 9 km/h 13 km/h 83 % 0 mm
23:25 14.2 °C 11.4 °C 1008 hPa South 11.1 km/h 22.5 km/h 83 % 0 mm
23:30 14.3 °C 11.4 °C 1008 hPa South 9.5 km/h 17.7 km/h 83 % 0 mm
23:34 14.3 °C 11.4 °C 1008 hPa North 9.7 km/h 16.7 km/h 83 % 0 mm
23:37 14.3 °C 11.4 °C 1008 hPa SSE 6.4 km/h 14.8 km/h 83 % 0 mm
23:41 14.3 °C 11.5 °C 1008 hPa South 11.7 km/h 16.7 km/h 83 % 0 mm
23:46 14.3 °C 11.2 °C 1008 hPa North 12.4 km/h 16.1 km/h 82 % 0 mm
23:47 14.3 °C 11.2 °C 1008 hPa South 9 km/h 14.8 km/h 82 % 0 mm
23:50 14.3 °C 11.2 °C 1008 hPa North 14.5 km/h 18.5 km/h 82 % 0 mm
23:55 14.2 °C 11.4 °C 1008 hPa SSE 9.5 km/h 16.1 km/h 83 % 0 mm
Ararat Weather
Compliments of Weather Underground - 3.5 mb
Click here to send mail.


ABOUT

Live weather data from Ararat, Victoria, Australia, 3377
Data uploaded from Cumulus every 5 minutes to Weather Underground.
This site then downloads the raw data for formatting and display.
Metric and imperial data can be displayed. Graphs and historical data available.
Includes Sun and Moon times and rain image live from BOM.

Check out Ararat Weather on Facebook, Twitter and Google +

Help support ongoing costs by checking out the ads





Follow @AraratWeather